Portada
METAR-TAF:

METAR-TAF

Aeroports :

Thule, Grenlàndia

latitud: 76-32N, longitud: 068-42W, altitud: 77 m

Observació

L'informe es va fer fa 34 minuts, a les 05:56 UTC
Vent 10 kt del Est/Sud-Est
Temperatura -9°C
Humitat 67%
Pressió 1018 hPa
Visibilitat 10 km o més
Cel clar

METAR: BGTL 080556Z AUTO 12010KT 9999 CLR M09/M14 A3007 RMK AO2 SLP171 T10951136 11081 21179 52016 TSNO $

Hora: 03:30 (06:30 UTC)

Pronòstic

L'informe es va fer fa 13 hores i 30 minuts, a les 17:00 UTC
Pronòstic vàlid del 07 a les 17 UTC al 08 a les 23 UTC
Vent 9 kt del Est/Sud-Est
Visibilitat 10 km o més
Cel clar
Evolucionant progressivament
l' 08 a les 11 UTC al 08 a les 12 UTC
Vent 15 kt del Sud-Est amb ràfegues de 25 kt
Visibilitat 10 km o més
Cel clar
Temporalment
l' 08 a les 12 UTC al 08 a les 23 UTC
Vent 20 kt del Sud-Est amb ràfegues de 30 kt

TAF: BGTL 071700Z 0717/0823 11009KT 9999 SKC QNH2991INS BECMG 0811/0812 13015G25KT 9999 SKC 520009 QNH3017INS TEMPO 0812/0823 13020G30KT TXM09/0717Z TNM17/0805Z

Observacions i pronòstics meteorològics de més de 4000 aeroports (METAR i TAF).

Les estacions disponibles són els punts grocs i vermells al mapa.

Posi el ratolí al punt desitjat per veure el nom de l'estació.

Feu clic per veure les observacions i els pronòstics meteorològics.

Per canviar el mapa: feu clic els botons verds amb una creu de color negre per apropar; al botó verd amb un guió per allunyar la imatge; o en les fletxes verdes per a mapes adjacents.


METAR-TAF: